createdAt,value
2018-06-25T00:01:09.305Z,4.72
2018-06-25T00:03:37.610Z,4.80
2018-06-25T00:06:05.952Z,4.28
2018-06-25T00:08:34.240Z,4.40
2018-06-25T00:11:02.553Z,4.25
2018-06-25T00:13:30.844Z,4.22
2018-06-25T00:15:59.157Z,4.33
2018-06-25T00:18:27.476Z,3.87
2018-06-25T00:20:55.787Z,3.75
2018-06-25T00:23:24.081Z,3.85
2018-06-25T00:25:52.410Z,4.47
2018-06-25T00:28:20.706Z,4.00
2018-06-25T00:30:49.016Z,4.10
2018-06-25T00:33:17.307Z,4.72
2018-06-25T00:35:45.613Z,4.15
2018-06-25T00:38:13.914Z,4.08
2018-06-25T00:40:42.225Z,3.87
2018-06-25T00:43:10.521Z,3.72
2018-06-25T00:45:38.864Z,3.98
2018-06-25T00:48:07.157Z,3.90
2018-06-25T00:50:35.466Z,3.33
2018-06-25T00:53:03.764Z,4.55
2018-06-25T00:55:31.795Z,3.85
2018-06-25T00:58:00.098Z,3.50
2018-06-25T01:00:28.392Z,4.10
2018-06-25T01:02:56.396Z,3.65
2018-06-25T01:05:24.737Z,3.95
2018-06-25T01:07:53.071Z,3.50
2018-06-25T01:10:21.405Z,3.20
2018-06-25T01:12:49.732Z,3.60
2018-06-25T01:15:18.067Z,3.70
2018-06-25T01:17:46.364Z,3.27
2018-06-25T01:20:14.730Z,3.33
2018-06-25T01:22:43.062Z,3.80
2018-06-25T01:25:11.428Z,3.08
2018-06-25T01:27:39.742Z,3.85
2018-06-25T01:30:08.068Z,3.45
2018-06-25T01:32:36.453Z,3.55
2018-06-25T01:35:04.762Z,3.25
2018-06-25T01:37:33.097Z,3.20
2018-06-25T01:40:01.413Z,3.02
2018-06-25T01:42:29.759Z,3.27
2018-06-25T01:44:58.068Z,4.08
2018-06-25T01:47:26.410Z,3.33
2018-06-25T01:49:54.713Z,3.40
2018-06-25T01:52:23.097Z,4.37
2018-06-25T01:54:51.416Z,3.10
2018-06-25T01:57:19.459Z,3.08
2018-06-25T01:59:47.762Z,3.12
2018-06-25T02:02:16.089Z,3.60
2018-06-25T02:04:44.445Z,3.20
2018-06-25T02:07:12.777Z,3.50
2018-06-25T02:09:41.090Z,4.28
2018-06-25T02:12:09.147Z,3.45
2018-06-25T02:14:37.460Z,4.00
2018-06-25T02:17:05.820Z,3.72
2018-06-25T02:19:34.152Z,3.45
2018-06-25T02:22:02.500Z,4.65
2018-06-25T02:24:30.812Z,3.17
2018-06-25T02:26:59.181Z,4.22
2018-06-25T02:29:27.508Z,3.40
2018-06-25T02:31:55.848Z,3.80
2018-06-25T02:34:24.186Z,3.98
2018-06-25T02:36:52.531Z,3.37
2018-06-25T02:39:20.853Z,3.90
2018-06-25T02:41:49.211Z,3.90
2018-06-25T02:44:17.556Z,3.58
2018-06-25T02:46:45.938Z,3.92
2018-06-25T02:49:14.254Z,4.28
2018-06-25T02:51:42.610Z,4.12
2018-06-25T02:54:10.939Z,3.62
2018-06-25T02:56:39.315Z,3.90
2018-06-25T02:59:07.668Z,5.12
2018-06-25T03:01:35.992Z,3.40
2018-06-25T03:04:04.377Z,3.40
2018-06-25T03:06:32.725Z,3.75
2018-06-25T03:09:01.073Z,3.80
2018-06-25T03:11:29.387Z,3.10
2018-06-25T03:13:57.749Z,4.00
2018-06-25T03:16:26.075Z,3.85
2018-06-25T03:18:54.446Z,4.00
2018-06-25T03:21:22.768Z,3.95
2018-06-25T03:23:51.172Z,3.85
2018-06-25T03:26:19.491Z,4.33
2018-06-25T03:28:47.829Z,4.12
2018-06-25T03:31:16.133Z,3.70
2018-06-25T03:33:44.499Z,3.42
2018-06-25T03:36:12.809Z,3.98
2018-06-25T03:38:41.156Z,3.92
2018-06-25T03:41:09.552Z,3.65
2018-06-25T03:43:38.434Z,3.72
2018-06-25T03:46:06.757Z,3.80
2018-06-25T03:48:35.086Z,3.30
2018-06-25T03:51:03.458Z,3.40
2018-06-25T03:53:31.768Z,3.77
2018-06-25T03:56:00.093Z,4.22
2018-06-25T03:58:28.144Z,3.42
2018-06-25T04:00:56.523Z,4.03
2018-06-25T04:03:24.849Z,4.22
2018-06-25T04:05:53.209Z,4.50
2018-06-25T04:08:21.550Z,4.00
2018-06-25T04:10:49.898Z,3.52
2018-06-25T04:13:18.229Z,3.87
2018-06-25T04:15:46.584Z,3.05
2018-06-25T04:18:14.920Z,2.90
2018-06-25T04:20:43.345Z,2.87
2018-06-25T04:23:11.634Z,2.80
2018-06-25T04:25:39.957Z,2.80
2018-06-25T04:28:08.300Z,2.90
2018-06-25T04:30:36.694Z,3.58
2018-06-25T04:33:05.413Z,2.90
2018-06-25T04:35:33.777Z,3.27
2018-06-25T04:38:02.170Z,3.45
2018-06-25T04:40:30.497Z,3.05
2018-06-25T04:42:58.842Z,2.47
2018-06-25T04:45:27.219Z,3.10
2018-06-25T04:47:55.580Z,3.05
2018-06-25T04:50:23.913Z,3.05
2018-06-25T04:52:52.236Z,3.50
2018-06-25T04:55:20.573Z,3.20
2018-06-25T04:57:48.892Z,3.45
2018-06-25T05:00:17.232Z,3.10
2018-06-25T05:02:45.597Z,3.75
2018-06-25T05:05:13.989Z,3.75
2018-06-25T05:07:42.308Z,3.77
2018-06-25T05:10:10.656Z,3.45
2018-06-25T05:12:38.972Z,2.77
2018-06-25T05:15:07.312Z,2.90
2018-06-25T05:17:35.644Z,2.67
2018-06-25T05:20:04.054Z,2.90
2018-06-25T05:22:32.381Z,2.40
2018-06-25T05:25:00.717Z,2.77
2018-06-25T05:27:29.080Z,3.02
2018-06-25T05:29:57.431Z,2.80
2018-06-25T05:32:25.861Z,2.50
2018-06-25T05:34:54.209Z,2.70
2018-06-25T05:37:29.265Z,2.83
2018-06-25T05:39:57.625Z,2.55
2018-06-25T05:42:25.946Z,2.30
2018-06-25T05:44:54.293Z,2.12
2018-06-25T05:47:22.637Z,2.80
2018-06-25T05:49:51.064Z,2.20
2018-06-25T05:52:19.429Z,2.95
2018-06-25T05:54:47.788Z,2.75
2018-06-25T05:57:16.122Z,2.50
2018-06-25T05:59:44.513Z,2.25
2018-06-25T06:02:12.924Z,2.62
2018-06-25T06:04:41.293Z,2.65
2018-06-25T06:07:09.652Z,2.90
2018-06-25T06:09:37.776Z,3.08
2018-06-25T06:12:06.157Z,2.40
2018-06-25T06:14:34.496Z,2.42
2018-06-25T06:17:02.884Z,2.45
2018-06-25T06:19:31.228Z,3.17
2018-06-25T06:21:59.660Z,2.50
2018-06-25T06:24:28.555Z,2.60
2018-06-25T06:26:56.874Z,2.90
2018-06-25T06:29:25.811Z,2.40
2018-06-25T06:31:54.184Z,2.50
2018-06-25T06:34:22.560Z,2.60
2018-06-25T06:36:50.912Z,2.40
2018-06-25T06:39:19.240Z,2.33
2018-06-25T06:41:47.613Z,2.72
2018-06-25T06:44:15.987Z,2.40
2018-06-25T06:46:44.374Z,2.85
2018-06-25T06:49:12.763Z,2.98
2018-06-25T06:51:41.100Z,2.98
2018-06-25T06:54:09.444Z,2.30
2018-06-25T06:56:37.814Z,2.25
2018-06-25T06:59:06.160Z,2.80
2018-06-25T07:01:34.509Z,2.55
2018-06-25T07:04:02.842Z,2.90
2018-06-25T07:06:31.181Z,2.55
2018-06-25T07:08:59.509Z,2.83
2018-06-25T07:11:27.844Z,2.75
2018-06-25T07:13:56.186Z,3.25
2018-06-25T07:16:24.521Z,2.80
2018-06-25T07:18:52.832Z,3.20
2018-06-25T07:21:21.164Z,2.70
2018-06-25T07:23:49.477Z,2.47
2018-06-25T07:26:24.001Z,2.20
2018-06-25T07:28:52.739Z,2.40
2018-06-25T07:31:21.117Z,2.60
2018-06-25T07:33:49.422Z,2.90
2018-06-25T07:36:18.661Z,2.95
2018-06-25T07:38:46.977Z,2.70
2018-06-25T07:41:16.787Z,2.83
2018-06-25T07:43:45.197Z,3.25
2018-06-25T07:46:13.833Z,2.72
2018-06-25T07:48:42.880Z,3.37
2018-06-25T07:51:10.936Z,2.65
2018-06-25T07:53:39.373Z,3.90
2018-06-25T07:56:07.671Z,6.05
2018-06-25T07:58:35.993Z,4.20
2018-06-25T08:01:04.380Z,3.45
2018-06-25T08:03:32.701Z,3.92
2018-06-25T08:06:01.068Z,3.47
2018-06-25T08:08:29.391Z,3.60
2018-06-25T08:10:57.768Z,3.72
2018-06-25T08:13:26.122Z,3.92
2018-06-25T08:15:57.436Z,3.17
2018-06-25T08:18:25.877Z,3.65
2018-06-25T08:20:54.214Z,3.20
2018-06-25T08:23:22.557Z,4.30
2018-06-25T08:25:50.905Z,3.85
2018-06-25T08:28:19.253Z,3.12
2018-06-25T08:30:47.569Z,3.95
2018-06-25T08:33:15.924Z,3.62
2018-06-25T08:35:44.289Z,3.65
2018-06-25T08:38:12.650Z,3.55
2018-06-25T08:40:41.052Z,3.27
2018-06-25T08:43:09.408Z,3.30
2018-06-25T08:45:37.734Z,3.20
2018-06-25T08:48:06.685Z,2.85
2018-06-25T08:50:35.013Z,3.50
2018-06-25T08:53:03.076Z,3.65
2018-06-25T08:55:31.405Z,3.87
2018-06-25T08:58:00.040Z,2.95
2018-06-25T09:00:28.402Z,3.12
2018-06-25T09:02:56.794Z,4.05
2018-06-25T09:05:25.304Z,3.77
2018-06-25T09:07:53.698Z,3.80
2018-06-25T09:10:22.411Z,3.25
2018-06-25T09:12:51.943Z,3.27
2018-06-25T09:15:20.323Z,2.62
2018-06-25T09:17:48.661Z,3.22
2018-06-25T09:20:16.980Z,3.02
2018-06-25T09:22:45.316Z,3.00
2018-06-25T09:25:13.628Z,3.35
2018-06-25T09:27:49.159Z,3.15
2018-06-25T09:30:18.528Z,2.80
2018-06-25T09:32:46.921Z,2.20
2018-06-25T09:35:15.315Z,2.02
2018-06-25T09:37:43.616Z,2.00
2018-06-25T09:40:11.977Z,2.25
2018-06-25T09:42:40.294Z,1.72
2018-06-25T09:45:09.892Z,2.20
2018-06-25T09:47:38.207Z,2.22
2018-06-25T09:50:06.602Z,2.42
2018-06-25T09:52:34.945Z,1.82
2018-06-25T09:55:03.339Z,1.10
2018-06-25T09:57:31.661Z,1.20
2018-06-25T10:00:00.035Z,1.20
2018-06-25T10:02:28.371Z,1.10
2018-06-25T10:04:56.762Z,1.30
2018-06-25T10:07:24.991Z,1.20
2018-06-25T10:09:53.420Z,1.20
2018-06-25T10:12:21.806Z,1.20
2018-06-25T10:14:50.121Z,1.65
2018-06-25T10:17:18.449Z,1.75
2018-06-25T10:19:46.521Z,1.80
2018-06-25T10:22:14.875Z,1.30
2018-06-25T10:24:44.728Z,1.30
2018-06-25T10:27:13.098Z,1.75
2018-06-25T10:29:41.437Z,1.60
2018-06-25T10:32:09.764Z,1.70
2018-06-25T10:34:38.105Z,2.05
2018-06-25T10:37:06.441Z,1.92
2018-06-25T10:39:34.781Z,1.70
2018-06-25T10:42:03.137Z,2.40
2018-06-25T10:44:31.589Z,2.00
2018-06-25T10:46:59.905Z,2.05
2018-06-25T10:49:28.253Z,2.40
2018-06-25T10:51:56.581Z,2.05
2018-06-25T10:54:25.107Z,1.92
2018-06-25T10:56:53.423Z,2.08
2018-06-25T10:59:21.866Z,2.00
2018-06-25T11:01:50.137Z,2.30
2018-06-25T11:04:18.510Z,1.98
2018-06-25T11:06:46.826Z,2.20
2018-06-25T11:09:15.169Z,1.70
2018-06-25T11:11:43.536Z,1.90
2018-06-25T11:14:11.850Z,1.82
2018-06-25T11:16:40.239Z,1.55
2018-06-25T11:19:08.549Z,1.25
2018-06-25T11:21:36.864Z,1.25
2018-06-25T11:24:05.245Z,1.60
2018-06-25T11:26:33.592Z,1.32
2018-06-25T11:29:01.905Z,1.20
2018-06-25T11:31:30.242Z,0.60
2018-06-25T11:33:58.561Z,0.80
2018-06-25T11:36:26.906Z,0.75
2018-06-25T11:38:55.208Z,1.00
2018-06-25T11:41:23.253Z,0.90
2018-06-25T11:43:51.564Z,1.10
2018-06-25T11:46:19.931Z,1.25
2018-06-25T11:48:48.249Z,0.90
2018-06-25T11:51:16.580Z,1.00
2018-06-25T11:53:44.929Z,1.25
2018-06-25T11:56:13.279Z,1.05
2018-06-25T11:58:41.641Z,2.00
2018-06-25T12:01:09.965Z,1.12
2018-06-25T12:03:38.291Z,1.42
2018-06-25T12:06:06.702Z,1.30
2018-06-25T12:08:35.035Z,1.20
2018-06-25T12:11:03.392Z,1.40
2018-06-25T12:13:31.707Z,1.07
2018-06-25T12:16:00.066Z,1.30
2018-06-25T12:18:28.392Z,1.07
2018-06-25T12:20:56.786Z,1.22
2018-06-25T12:23:25.160Z,1.30
2018-06-25T12:25:53.485Z,1.35
2018-06-25T12:28:21.814Z,1.30
2018-06-25T12:30:50.196Z,1.17
2018-06-25T12:33:18.540Z,1.22
2018-06-25T12:35:46.884Z,1.30
2018-06-25T12:38:15.196Z,1.30
2018-06-25T12:40:43.464Z,1.30
2018-06-25T12:43:11.809Z,1.22
2018-06-25T12:45:40.169Z,1.20
2018-06-25T12:48:08.592Z,1.42
2018-06-25T12:50:36.900Z,1.25
2018-06-25T12:53:05.280Z,1.30
2018-06-25T12:55:33.612Z,1.15
2018-06-25T12:58:01.956Z,1.22
2018-06-25T13:00:30.283Z,1.30
2018-06-25T13:03:01.790Z,1.12
2018-06-25T13:05:30.152Z,1.20
2018-06-25T13:07:58.512Z,1.10
2018-06-25T13:10:26.843Z,1.00
2018-06-25T13:12:55.302Z,1.52
2018-06-25T13:15:23.640Z,1.30
2018-06-25T13:17:52.009Z,1.10
2018-06-25T13:20:20.409Z,1.40
2018-06-25T13:22:48.768Z,1.30
2018-06-25T13:25:17.092Z,1.27
2018-06-25T13:27:45.416Z,1.50
2018-06-25T13:30:13.770Z,1.07
2018-06-25T13:32:42.150Z,1.00
2018-06-25T13:35:10.469Z,1.12
2018-06-25T13:37:38.813Z,1.40
2018-06-25T13:40:07.161Z,1.30
2018-06-25T13:42:35.492Z,2.00
2018-06-25T13:45:04.036Z,2.40
2018-06-25T13:47:32.672Z,1.77
2018-06-25T13:50:01.004Z,1.67
2018-06-25T13:52:29.373Z,1.50
2018-06-25T13:54:57.771Z,1.60
2018-06-25T13:57:26.125Z,1.20
2018-06-25T13:59:54.526Z,1.70
2018-06-25T14:02:22.869Z,1.55
2018-06-25T14:04:51.236Z,1.60
2018-06-25T14:07:19.600Z,1.30
2018-06-25T14:09:47.988Z,1.80
2018-06-25T14:12:16.338Z,1.70
2018-06-25T14:14:44.684Z,1.90
2018-06-25T14:17:13.062Z,1.55
2018-06-25T14:19:41.307Z,1.40
2018-06-25T14:22:09.706Z,1.72
2018-06-25T14:24:43.900Z,1.42
2018-06-25T14:27:13.005Z,1.75
2018-06-25T14:29:41.335Z,1.60
2018-06-25T14:32:14.789Z,2.10
2018-06-25T14:34:47.688Z,1.77
2018-06-25T14:37:15.800Z,1.82
2018-06-25T14:39:44.140Z,1.80
2018-06-25T14:42:12.505Z,1.60
2018-06-25T14:44:40.830Z,1.80
2018-06-25T14:47:09.153Z,2.00
2018-06-25T14:49:37.496Z,1.92
2018-06-25T14:52:05.853Z,2.00
2018-06-25T14:54:34.196Z,1.95
2018-06-25T14:57:02.537Z,1.60
2018-06-25T14:59:30.896Z,1.70
2018-06-25T15:01:59.241Z,2.10
2018-06-25T15:04:27.616Z,1.80
2018-06-25T15:06:55.936Z,1.80
2018-06-25T15:09:24.281Z,2.10
2018-06-25T15:11:52.613Z,2.10
2018-06-25T15:14:20.984Z,1.95
2018-06-25T15:16:49.321Z,2.12
2018-06-25T15:19:17.688Z,2.35
2018-06-25T15:21:46.061Z,2.10
2018-06-25T15:24:14.426Z,2.35
2018-06-25T15:26:42.806Z,2.10
2018-06-25T15:29:11.162Z,2.25
2018-06-25T15:31:39.497Z,2.25
2018-06-25T15:34:07.861Z,2.50
2018-06-25T15:36:36.217Z,2.08
2018-06-25T15:39:07.861Z,2.40
2018-06-25T15:41:36.206Z,2.17
2018-06-25T15:44:04.312Z,2.12
2018-06-25T15:46:32.693Z,2.22
2018-06-25T15:49:01.310Z,1.98
2018-06-25T15:51:29.693Z,1.75
2018-06-25T15:53:58.486Z,2.00
2018-06-25T15:56:26.905Z,1.87
2018-06-25T15:58:55.239Z,1.67
2018-06-25T16:01:23.565Z,1.90
2018-06-25T16:03:51.881Z,2.60
2018-06-25T16:06:20.200Z,2.25
2018-06-25T16:08:48.533Z,2.10
2018-06-25T16:11:17.000Z,2.22
2018-06-25T16:13:45.330Z,2.50
2018-06-25T16:16:13.680Z,2.42
2018-06-25T16:18:41.992Z,2.15
2018-06-25T16:21:10.321Z,1.82
2018-06-25T16:23:38.632Z,2.37
2018-06-25T16:26:06.988Z,2.45
2018-06-25T16:28:35.336Z,2.25
2018-06-25T16:31:03.717Z,1.90
2018-06-25T16:33:32.036Z,1.90
2018-06-25T16:36:00.393Z,2.05
2018-06-25T16:38:28.798Z,2.40
2018-06-25T16:40:57.157Z,3.47
2018-06-25T16:43:25.468Z,2.20
2018-06-25T16:45:53.815Z,1.90
2018-06-25T16:48:22.125Z,1.82
2018-06-25T16:50:50.481Z,1.95
2018-06-25T16:53:18.785Z,1.80
2018-06-25T16:55:47.137Z,2.00
2018-06-25T16:58:15.468Z,1.80
2018-06-25T17:00:43.836Z,2.50
2018-06-25T17:03:12.213Z,1.98
2018-06-25T17:05:40.597Z,1.80
2018-06-25T17:08:08.961Z,2.25
2018-06-25T17:10:37.372Z,1.82
2018-06-25T17:13:05.670Z,1.95
2018-06-25T17:15:34.036Z,1.90
2018-06-25T17:18:04.592Z,1.80
2018-06-25T17:20:33.032Z,1.80
2018-06-25T17:23:01.374Z,2.12
2018-06-25T17:25:29.733Z,2.10
2018-06-25T17:27:58.325Z,1.75
2018-06-25T17:30:26.706Z,2.15
2018-06-25T17:32:55.062Z,2.40
2018-06-25T17:35:23.409Z,2.00
2018-06-25T17:37:51.749Z,2.00
2018-06-25T17:40:20.118Z,1.52
2018-06-25T17:42:48.444Z,1.73
2018-06-25T17:45:16.804Z,2.10
2018-06-25T17:47:45.137Z,1.97
2018-06-25T17:50:18.609Z,1.50
2018-06-25T17:52:46.869Z,1.50
2018-06-25T17:55:15.221Z,1.60
2018-06-25T17:57:43.583Z,1.53
2018-06-25T18:00:11.926Z,1.50
2018-06-25T18:02:40.294Z,1.77
2018-06-25T18:05:08.650Z,1.90
2018-06-25T18:07:37.026Z,1.73
2018-06-25T18:10:05.650Z,1.57
2018-06-25T18:12:33.997Z,1.87
2018-06-25T18:15:02.371Z,1.63
2018-06-25T18:17:30.735Z,1.83
2018-06-25T18:19:59.076Z,2.23
2018-06-25T18:22:27.448Z,1.60
2018-06-25T18:24:55.797Z,1.67
2018-06-25T18:27:24.148Z,1.30
2018-06-25T18:29:52.481Z,1.60
2018-06-25T18:32:20.864Z,1.93
2018-06-25T18:34:48.912Z,1.37
2018-06-25T18:37:17.324Z,1.43
2018-06-25T18:39:45.676Z,1.62
2018-06-25T18:42:14.256Z,1.67
2018-06-25T18:44:42.860Z,2.00
2018-06-25T18:47:11.234Z,2.00
2018-06-25T18:49:39.580Z,1.95
2018-06-25T18:52:07.954Z,1.80
2018-06-25T18:54:36.328Z,2.00
2018-06-25T18:57:04.719Z,2.45
2018-06-25T18:59:33.068Z,1.98
2018-06-25T19:02:01.436Z,1.98
2018-06-25T19:04:29.780Z,1.95
2018-06-25T19:06:58.146Z,1.80
2018-06-25T19:09:26.472Z,2.40
2018-06-25T19:11:54.533Z,1.80
2018-06-25T19:14:22.889Z,1.65
2018-06-25T19:16:51.234Z,2.08
2018-06-25T19:19:19.565Z,2.00
2018-06-25T19:21:47.948Z,2.45
2018-06-25T19:24:16.331Z,1.70
2018-06-25T19:26:44.712Z,1.95
2018-06-25T19:29:13.048Z,2.30
2018-06-25T19:31:41.388Z,1.82
2018-06-25T19:34:09.541Z,2.10
2018-06-25T19:36:37.810Z,2.20
2018-06-25T19:39:09.459Z,2.00
2018-06-25T19:41:38.147Z,2.17
2018-06-25T19:44:06.486Z,2.40
2018-06-25T19:46:34.834Z,2.47
2018-06-25T19:49:03.213Z,2.12
2018-06-25T19:51:31.544Z,2.25
2018-06-25T19:53:59.881Z,2.50
2018-06-25T19:56:28.204Z,2.12
2018-06-25T19:58:56.556Z,1.90
2018-06-25T20:01:24.881Z,2.17
2018-06-25T20:03:53.241Z,2.20
2018-06-25T20:06:21.562Z,1.90
2018-06-25T20:08:49.926Z,2.20
2018-06-25T20:11:18.346Z,2.95
2018-06-25T20:13:46.637Z,2.15
2018-06-25T20:16:15.013Z,2.52
2018-06-25T20:18:43.342Z,2.42
2018-06-25T20:21:11.684Z,2.15
2018-06-25T20:23:40.032Z,2.00
2018-06-25T20:26:08.441Z,1.92
2018-06-25T20:28:36.736Z,2.10
2018-06-25T20:31:05.093Z,2.45
2018-06-25T20:33:33.434Z,1.95
2018-06-25T20:36:01.769Z,1.60
2018-06-25T20:38:30.109Z,2.02
2018-06-25T20:40:58.437Z,1.90
2018-06-25T20:43:26.800Z,2.15
2018-06-25T20:45:55.189Z,2.02
2018-06-25T20:48:23.525Z,2.42
2018-06-25T20:50:51.845Z,2.00
2018-06-25T20:53:20.270Z,2.35
2018-06-25T20:55:48.561Z,2.05
2018-06-25T20:58:16.905Z,1.90
2018-06-25T21:00:45.232Z,2.17
2018-06-25T21:03:13.597Z,1.90
2018-06-25T21:05:41.945Z,1.90
2018-06-25T21:08:10.260Z,1.80
2018-06-25T21:10:38.570Z,1.95
2018-06-25T21:13:06.892Z,2.00
2018-06-25T21:15:35.232Z,2.22
2018-06-25T21:18:03.568Z,2.20
2018-06-25T21:20:31.866Z,1.90
2018-06-25T21:23:00.200Z,1.85
2018-06-25T21:25:28.526Z,1.80
2018-06-25T21:27:56.837Z,1.80
2018-06-25T21:30:25.220Z,2.17
2018-06-25T21:32:53.557Z,2.00
2018-06-25T21:37:56.581Z,2.08
2018-06-25T21:40:24.957Z,2.02
2018-06-25T21:42:53.281Z,2.22
2018-06-25T21:45:21.612Z,1.87
2018-06-25T21:47:49.917Z,2.30
2018-06-25T21:50:18.530Z,2.08
2018-06-25T21:52:46.852Z,2.08
2018-06-25T21:55:15.182Z,1.95
2018-06-25T21:57:43.540Z,2.50
2018-06-25T22:00:13.359Z,2.10
2018-06-25T22:02:41.928Z,1.70
2018-06-25T22:05:10.317Z,1.98
2018-06-25T22:07:38.645Z,2.10
2018-06-25T22:10:07.705Z,1.60
2018-06-25T22:12:36.042Z,1.45
2018-06-25T22:15:05.024Z,2.22
2018-06-25T22:17:33.388Z,1.62
2018-06-25T22:20:01.769Z,2.10
2018-06-25T22:22:30.760Z,2.05
2018-06-25T22:24:59.304Z,2.02
2018-06-25T22:27:27.641Z,2.02
2018-06-25T22:29:56.001Z,2.22
2018-06-25T22:32:24.040Z,2.22
2018-06-25T22:34:52.400Z,2.50
2018-06-25T22:37:20.765Z,2.37
2018-06-25T22:39:49.148Z,2.05
2018-06-25T22:42:18.613Z,2.60
2018-06-25T22:44:46.956Z,2.15
2018-06-25T22:47:15.276Z,2.08
2018-06-25T22:49:43.332Z,2.58
2018-06-25T22:52:11.680Z,2.50
2018-06-25T22:54:40.021Z,2.90
2018-06-25T22:57:08.457Z,3.30
2018-06-25T22:59:36.802Z,3.15
2018-06-25T23:02:05.325Z,2.80
2018-06-25T23:04:33.713Z,3.10
2018-06-25T23:07:02.031Z,3.50
2018-06-25T23:09:30.381Z,3.65
2018-06-25T23:11:58.748Z,3.02
2018-06-25T23:14:27.061Z,2.98
2018-06-25T23:16:55.425Z,2.40
2018-06-25T23:19:23.748Z,2.55
2018-06-25T23:21:52.125Z,2.58
2018-06-25T23:24:20.736Z,2.37
2018-06-25T23:26:49.085Z,1.85
2018-06-25T23:29:17.576Z,2.12
2018-06-25T23:31:45.920Z,1.90
2018-06-25T23:34:14.244Z,1.75
2018-06-25T23:36:42.595Z,3.02
2018-06-25T23:39:11.959Z,2.15
2018-06-25T23:41:40.733Z,1.80
2018-06-25T23:44:09.053Z,2.00
2018-06-25T23:46:37.401Z,2.33
2018-06-25T23:49:05.881Z,2.72
2018-06-25T23:51:34.274Z,2.20
2018-06-25T23:54:02.605Z,2.95
2018-06-25T23:56:30.933Z,2.80
2018-06-25T23:58:58.963Z,2.60
